sensor_id;sensor_type;location;lat;lon;timestamp;P1;durP1;ratioP1;P2;durP2;ratioP2
37877;SDS011;23715;53.652;8.516;2023-07-16T00:00:11;16.77;;;15.70;;
37877;SDS011;23715;53.652;8.516;2023-07-16T00:05:11;16.30;;;15.30;;
37877;SDS011;23715;53.652;8.516;2023-07-16T00:10:11;17.48;;;16.45;;
37877;SDS011;23715;53.652;8.516;2023-07-16T00:15:11;18.23;;;16.85;;
37877;SDS011;23715;53.652;8.516;2023-07-16T00:20:12;18.23;;;16.93;;
37877;SDS011;23715;53.652;8.516;2023-07-16T00:30:11;16.20;;;14.80;;
37877;SDS011;23715;53.652;8.516;2023-07-16T00:35:12;17.05;;;15.80;;
37877;SDS011;23715;53.652;8.516;2023-07-16T00:40:13;18.53;;;17.23;;
37877;SDS011;23715;53.652;8.516;2023-07-16T00:45:13;18.23;;;17.10;;
37877;SDS011;23715;53.652;8.516;2023-07-16T00:50:14;19.57;;;18.32;;
37877;SDS011;23715;53.652;8.516;2023-07-16T00:55:15;19.73;;;18.33;;
37877;SDS011;23715;53.652;8.516;2023-07-16T01:00:15;20.37;;;18.67;;
37877;SDS011;23715;53.652;8.516;2023-07-16T01:05:15;20.30;;;18.87;;
37877;SDS011;23715;53.652;8.516;2023-07-16T01:10:18;19.10;;;17.80;;
37877;SDS011;23715;53.652;8.516;2023-07-16T01:15:18;22.27;;;19.67;;
37877;SDS011;23715;53.652;8.516;2023-07-16T01:20:19;22.58;;;21.25;;
37877;SDS011;23715;53.652;8.516;2023-07-16T01:25:26;22.07;;;20.68;;
37877;SDS011;23715;53.652;8.516;2023-07-16T01:30:39;23.18;;;21.02;;
37877;SDS011;23715;53.652;8.516;2023-07-16T01:35:44;24.23;;;22.77;;
37877;SDS011;23715;53.652;8.516;2023-07-16T01:40:46;25.70;;;24.10;;
37877;SDS011;23715;53.652;8.516;2023-07-16T01:45:47;23.80;;;22.35;;
37877;SDS011;23715;53.652;8.516;2023-07-16T01:50:47;23.70;;;22.07;;
37877;SDS011;23715;53.652;8.516;2023-07-16T01:55:49;21.37;;;20.08;;
37877;SDS011;23715;53.652;8.516;2023-07-16T02:05:49;20.27;;;18.80;;
37877;SDS011;23715;53.652;8.516;2023-07-16T02:10:49;19.87;;;18.57;;
37877;SDS011;23715;53.652;8.516;2023-07-16T02:15:50;21.23;;;20.02;;
37877;SDS011;23715;53.652;8.516;2023-07-16T02:20:50;22.62;;;20.90;;
37877;SDS011;23715;53.652;8.516;2023-07-16T02:25:50;22.07;;;20.48;;
37877;SDS011;23715;53.652;8.516;2023-07-16T02:30:50;21.60;;;20.20;;
37877;SDS011;23715;53.652;8.516;2023-07-16T02:40:50;19.65;;;18.45;;
37877;SDS011;23715;53.652;8.516;2023-07-16T02:45:50;21.87;;;20.25;;
37877;SDS011;23715;53.652;8.516;2023-07-16T02:50:51;20.83;;;19.43;;
37877;SDS011;23715;53.652;8.516;2023-07-16T02:55:51;21.40;;;19.82;;
37877;SDS011;23715;53.652;8.516;2023-07-16T03:05:51;21.50;;;20.03;;
37877;SDS011;23715;53.652;8.516;2023-07-16T03:10:51;20.82;;;19.32;;
37877;SDS011;23715;53.652;8.516;2023-07-16T03:15:51;22.25;;;20.62;;
37877;SDS011;23715;53.652;8.516;2023-07-16T03:20:52;21.20;;;19.62;;
37877;SDS011;23715;53.652;8.516;2023-07-16T03:25:52;22.17;;;20.60;;
37877;SDS011;23715;53.652;8.516;2023-07-16T03:30:53;23.05;;;21.65;;
37877;SDS011;23715;53.652;8.516;2023-07-16T03:35:54;24.45;;;22.20;;
37877;SDS011;23715;53.652;8.516;2023-07-16T03:40:54;23.22;;;21.55;;
37877;SDS011;23715;53.652;8.516;2023-07-16T03:45:56;26.20;;;23.75;;
37877;SDS011;23715;53.652;8.516;2023-07-16T03:50:56;23.22;;;21.62;;
37877;SDS011;23715;53.652;8.516;2023-07-16T04:00:56;23.00;;;21.37;;
37877;SDS011;23715;53.652;8.516;2023-07-16T04:06:01;24.80;;;23.10;;
37877;SDS011;23715;53.652;8.516;2023-07-16T04:11:05;24.47;;;22.87;;
37877;SDS011;23715;53.652;8.516;2023-07-16T04:16:05;24.47;;;22.60;;
37877;SDS011;23715;53.652;8.516;2023-07-16T04:21:11;26.77;;;24.82;;
37877;SDS011;23715;53.652;8.516;2023-07-16T04:26:07;24.57;;;22.77;;
37877;SDS011;23715;53.652;8.516;2023-07-16T04:31:09;24.50;;;22.50;;
37877;SDS011;23715;53.652;8.516;2023-07-16T04:36:09;23.65;;;21.82;;
37877;SDS011;23715;53.652;8.516;2023-07-16T04:41:10;29.37;;;27.55;;
37877;SDS011;23715;53.652;8.516;2023-07-16T04:46:11;28.85;;;26.80;;
37877;SDS011;23715;53.652;8.516;2023-07-16T05:02:56;29.48;;;27.42;;
37877;SDS011;23715;53.652;8.516;2023-07-16T05:07:56;29.48;;;27.73;;
37877;SDS011;23715;53.652;8.516;2023-07-16T05:12:57;33.30;;;30.92;;
37877;SDS011;23715;53.652;8.516;2023-07-16T05:18:02;30.70;;;28.60;;
37877;SDS011;23715;53.652;8.516;2023-07-16T05:23:02;29.63;;;27.50;;
37877;SDS011;23715;53.652;8.516;2023-07-16T05:33:02;34.05;;;31.77;;
37877;SDS011;23715;53.652;8.516;2023-07-16T05:38:03;32.75;;;30.55;;
37877;SDS011;23715;53.652;8.516;2023-07-16T05:48:03;27.30;;;24.92;;
37877;SDS011;23715;53.652;8.516;2023-07-16T05:53:03;25.17;;;23.47;;
37877;SDS011;23715;53.652;8.516;2023-07-16T05:58:04;25.15;;;23.18;;
37877;SDS011;23715;53.652;8.516;2023-07-16T06:03:04;25.35;;;23.45;;
37877;SDS011;23715;53.652;8.516;2023-07-16T06:08:06;27.10;;;24.75;;
37877;SDS011;23715;53.652;8.516;2023-07-16T06:13:06;24.67;;;22.87;;
37877;SDS011;23715;53.652;8.516;2023-07-16T06:23:06;24.72;;;22.75;;
37877;SDS011;23715;53.652;8.516;2023-07-16T06:28:06;24.43;;;22.52;;
37877;SDS011;23715;53.652;8.516;2023-07-16T06:38:06;23.85;;;22.10;;
37877;SDS011;23715;53.652;8.516;2023-07-16T06:43:06;22.10;;;19.87;;
37877;SDS011;23715;53.652;8.516;2023-07-16T06:48:07;23.18;;;21.07;;
37877;SDS011;23715;53.652;8.516;2023-07-16T06:53:17;23.15;;;21.27;;
37877;SDS011;23715;53.652;8.516;2023-07-16T06:58:14;23.50;;;21.55;;
37877;SDS011;23715;53.652;8.516;2023-07-16T07:03:14;23.15;;;21.10;;
37877;SDS011;23715;53.652;8.516;2023-07-16T07:08:14;20.82;;;18.32;;
37877;SDS011;23715;53.652;8.516;2023-07-16T07:13:15;19.73;;;18.05;;
37877;SDS011;23715;53.652;8.516;2023-07-16T07:18:18;19.87;;;18.17;;
37877;SDS011;23715;53.652;8.516;2023-07-16T07:23:18;21.70;;;19.67;;
37877;SDS011;23715;53.652;8.516;2023-07-16T07:33:18;21.70;;;19.55;;
37877;SDS011;23715;53.652;8.516;2023-07-16T07:38:20;20.17;;;18.42;;
37877;SDS011;23715;53.652;8.516;2023-07-16T07:43:23;17.98;;;16.45;;
37877;SDS011;23715;53.652;8.516;2023-07-16T07:48:24;19.82;;;17.90;;
37877;SDS011;23715;53.652;8.516;2023-07-16T07:53:24;19.63;;;17.97;;
37877;SDS011;23715;53.652;8.516;2023-07-16T07:58:25;19.25;;;17.23;;
37877;SDS011;23715;53.652;8.516;2023-07-16T08:03:25;18.95;;;17.17;;
37877;SDS011;23715;53.652;8.516;2023-07-16T08:08:25;17.30;;;15.75;;
37877;SDS011;23715;53.652;8.516;2023-07-16T08:13:26;16.07;;;14.63;;
37877;SDS011;23715;53.652;8.516;2023-07-16T08:18:26;18.45;;;16.97;;
37877;SDS011;23715;53.652;8.516;2023-07-16T08:23:26;17.05;;;15.65;;
37877;SDS011;23715;53.652;8.516;2023-07-16T08:28:27;18.25;;;16.35;;
37877;SDS011;23715;53.652;8.516;2023-07-16T08:33:27;17.17;;;15.05;;
37877;SDS011;23715;53.652;8.516;2023-07-16T08:38:30;17.70;;;15.13;;
37877;SDS011;23715;53.652;8.516;2023-07-16T08:43:30;15.75;;;14.28;;
37877;SDS011;23715;53.652;8.516;2023-07-16T08:48:34;15.48;;;14.07;;
37877;SDS011;23715;53.652;8.516;2023-07-16T08:53:40;14.43;;;13.00;;
37877;SDS011;23715;53.652;8.516;2023-07-16T08:58:36;18.62;;;14.47;;
37877;SDS011;23715;53.652;8.516;2023-07-16T09:03:37;16.70;;;15.15;;
37877;SDS011;23715;53.652;8.516;2023-07-16T09:08:40;17.37;;;16.12;;
37877;SDS011;23715;53.652;8.516;2023-07-16T09:13:43;16.20;;;14.80;;
37877;SDS011;23715;53.652;8.516;2023-07-16T09:18:44;17.80;;;16.10;;
37877;SDS011;23715;53.652;8.516;2023-07-16T09:23:47;17.98;;;15.98;;
37877;SDS011;23715;53.652;8.516;2023-07-16T09:28:49;18.87;;;17.17;;
37877;SDS011;23715;53.652;8.516;2023-07-16T09:38:54;17.73;;;15.78;;
37877;SDS011;23715;53.652;8.516;2023-07-16T09:43:57;16.87;;;15.45;;
37877;SDS011;23715;53.652;8.516;2023-07-16T09:48:58;14.40;;;13.15;;
37877;SDS011;23715;53.652;8.516;2023-07-16T09:54:03;14.10;;;12.75;;
37877;SDS011;23715;53.652;8.516;2023-07-16T09:59:17;15.30;;;13.90;;
37877;SDS011;23715;53.652;8.516;2023-07-16T10:04:19;16.10;;;14.70;;
37877;SDS011;23715;53.652;8.516;2023-07-16T10:09:36;17.87;;;16.12;;
37877;SDS011;23715;53.652;8.516;2023-07-16T10:14:41;15.58;;;14.00;;
37877;SDS011;23715;53.652;8.516;2023-07-16T10:19:50;16.25;;;14.65;;
37877;SDS011;23715;53.652;8.516;2023-07-16T10:24:58;15.18;;;13.80;;
37877;SDS011;23715;53.652;8.516;2023-07-16T10:29:59;16.50;;;13.93;;
37877;SDS011;23715;53.652;8.516;2023-07-16T10:35:02;16.70;;;15.13;;
37877;SDS011;23715;53.652;8.516;2023-07-16T10:40:03;16.07;;;14.68;;
37877;SDS011;23715;53.652;8.516;2023-07-16T10:45:07;16.25;;;14.95;;
37877;SDS011;23715;53.652;8.516;2023-07-16T10:50:08;15.05;;;13.85;;
37877;SDS011;23715;53.652;8.516;2023-07-16T10:55:09;15.30;;;13.67;;
37877;SDS011;23715;53.652;8.516;2023-07-16T11:00:10;16.17;;;14.78;;
37877;SDS011;23715;53.652;8.516;2023-07-16T11:05:10;15.13;;;13.58;;
37877;SDS011;23715;53.652;8.516;2023-07-16T11:10:11;15.50;;;13.88;;
37877;SDS011;23715;53.652;8.516;2023-07-16T11:15:13;15.08;;;13.60;;
37877;SDS011;23715;53.652;8.516;2023-07-16T11:20:14;15.45;;;13.78;;
37877;SDS011;23715;53.652;8.516;2023-07-16T11:25:14;14.93;;;13.43;;
37877;SDS011;23715;53.652;8.516;2023-07-16T11:30:21;13.50;;;11.90;;
37877;SDS011;23715;53.652;8.516;2023-07-16T11:35:19;14.18;;;12.80;;
37877;SDS011;23715;53.652;8.516;2023-07-16T11:40:20;15.60;;;14.13;;
37877;SDS011;23715;53.652;8.516;2023-07-16T11:45:22;14.53;;;12.58;;
37877;SDS011;23715;53.652;8.516;2023-07-16T11:50:27;15.32;;;13.72;;
37877;SDS011;23715;53.652;8.516;2023-07-16T11:55:29;15.50;;;13.95;;
37877;SDS011;23715;53.652;8.516;2023-07-16T12:05:29;13.93;;;12.63;;
37877;SDS011;23715;53.652;8.516;2023-07-16T12:10:29;15.70;;;14.33;;
37877;SDS011;23715;53.652;8.516;2023-07-16T12:15:31;14.10;;;12.78;;
37877;SDS011;23715;53.652;8.516;2023-07-16T12:20:33;14.23;;;13.03;;
37877;SDS011;23715;53.652;8.516;2023-07-16T12:25:38;15.20;;;13.90;;
37877;SDS011;23715;53.652;8.516;2023-07-16T12:30:42;14.65;;;13.25;;
37877;SDS011;23715;53.652;8.516;2023-07-16T12:35:42;14.10;;;12.95;;
37877;SDS011;23715;53.652;8.516;2023-07-16T12:40:42;14.70;;;13.35;;
37877;SDS011;23715;53.652;8.516;2023-07-16T12:45:47;13.35;;;12.13;;
37877;SDS011;23715;53.652;8.516;2023-07-16T12:50:56;14.33;;;12.90;;
37877;SDS011;23715;53.652;8.516;2023-07-16T12:55:59;14.95;;;12.05;;
37877;SDS011;23715;53.652;8.516;2023-07-16T13:01:04;13.00;;;11.88;;
37877;SDS011;23715;53.652;8.516;2023-07-16T13:06:07;14.85;;;13.85;;
37877;SDS011;23715;53.652;8.516;2023-07-16T13:11:07;14.78;;;13.40;;
37877;SDS011;23715;53.652;8.516;2023-07-16T13:16:09;14.53;;;13.13;;
37877;SDS011;23715;53.652;8.516;2023-07-16T13:21:10;14.25;;;12.98;;
37877;SDS011;23715;53.652;8.516;2023-07-16T13:26:10;14.65;;;12.68;;
37877;SDS011;23715;53.652;8.516;2023-07-16T13:36:10;13.62;;;12.53;;
37877;SDS011;23715;53.652;8.516;2023-07-16T13:41:10;13.67;;;12.47;;
37877;SDS011;23715;53.652;8.516;2023-07-16T13:46:10;13.60;;;12.18;;
37877;SDS011;23715;53.652;8.516;2023-07-16T13:56:10;17.80;;;12.63;;
37877;SDS011;23715;53.652;8.516;2023-07-16T14:01:11;16.32;;;13.90;;
37877;SDS011;23715;53.652;8.516;2023-07-16T14:06:11;14.60;;;13.20;;
37877;SDS011;23715;53.652;8.516;2023-07-16T14:11:13;17.02;;;15.40;;
37877;SDS011;23715;53.652;8.516;2023-07-16T14:16:17;15.68;;;14.28;;
37877;SDS011;23715;53.652;8.516;2023-07-16T14:21:20;14.30;;;12.93;;
37877;SDS011;23715;53.652;8.516;2023-07-16T14:26:25;16.45;;;14.98;;
37877;SDS011;23715;53.652;8.516;2023-07-16T14:31:34;16.57;;;15.17;;
37877;SDS011;23715;53.652;8.516;2023-07-16T14:36:30;16.95;;;15.45;;
37877;SDS011;23715;53.652;8.516;2023-07-16T14:46:30;16.35;;;14.75;;
37877;SDS011;23715;53.652;8.516;2023-07-16T14:51:30;15.97;;;14.67;;
37877;SDS011;23715;53.652;8.516;2023-07-16T14:56:32;14.98;;;13.58;;
37877;SDS011;23715;53.652;8.516;2023-07-16T15:01:32;16.07;;;14.28;;
37877;SDS011;23715;53.652;8.516;2023-07-16T15:06:33;14.63;;;13.53;;
37877;SDS011;23715;53.652;8.516;2023-07-16T15:11:34;16.00;;;14.70;;
37877;SDS011;23715;53.652;8.516;2023-07-16T15:16:35;16.05;;;14.68;;
37877;SDS011;23715;53.652;8.516;2023-07-16T15:21:36;14.83;;;13.40;;
37877;SDS011;23715;53.652;8.516;2023-07-16T15:26:36;14.63;;;13.48;;
37877;SDS011;23715;53.652;8.516;2023-07-16T15:31:37;13.75;;;12.60;;
37877;SDS011;23715;53.652;8.516;2023-07-16T15:36:39;14.85;;;13.48;;
37877;SDS011;23715;53.652;8.516;2023-07-16T15:41:41;11.85;;;10.95;;
37877;SDS011;23715;53.652;8.516;2023-07-16T15:46:45;13.20;;;12.00;;
37877;SDS011;23715;53.652;8.516;2023-07-16T15:51:44;13.80;;;12.60;;
37877;SDS011;23715;53.652;8.516;2023-07-16T15:56:45;12.45;;;11.33;;
37877;SDS011;23715;53.652;8.516;2023-07-16T16:01:45;14.23;;;12.03;;
37877;SDS011;23715;53.652;8.516;2023-07-16T16:06:46;12.88;;;11.63;;
37877;SDS011;23715;53.652;8.516;2023-07-16T16:11:46;14.35;;;12.90;;
37877;SDS011;23715;53.652;8.516;2023-07-16T16:17:01;13.72;;;12.63;;
37877;SDS011;23715;53.652;8.516;2023-07-16T16:22:01;13.10;;;11.90;;
37877;SDS011;23715;53.652;8.516;2023-07-16T16:26:54;13.43;;;12.05;;
37877;SDS011;23715;53.652;8.516;2023-07-16T16:31:54;12.88;;;11.75;;
37877;SDS011;23715;53.652;8.516;2023-07-16T16:41:57;11.25;;;10.45;;
37877;SDS011;23715;53.652;8.516;2023-07-16T16:46:57;12.30;;;11.30;;
37877;SDS011;23715;53.652;8.516;2023-07-16T16:52:03;11.48;;;10.48;;
37877;SDS011;23715;53.652;8.516;2023-07-16T16:56:59;13.63;;;12.27;;
37877;SDS011;23715;53.652;8.516;2023-07-16T17:01:59;12.90;;;11.70;;
37877;SDS011;23715;53.652;8.516;2023-07-16T17:07:00;12.45;;;11.35;;
37877;SDS011;23715;53.652;8.516;2023-07-16T17:12:01;12.25;;;11.05;;
37877;SDS011;23715;53.652;8.516;2023-07-16T17:17:16;14.58;;;13.15;;
37877;SDS011;23715;53.652;8.516;2023-07-16T17:22:04;12.68;;;11.63;;
37877;SDS011;23715;53.652;8.516;2023-07-16T17:27:04;13.20;;;11.90;;
37877;SDS011;23715;53.652;8.516;2023-07-16T17:32:06;13.48;;;12.47;;
37877;SDS011;23715;53.652;8.516;2023-07-16T17:37:07;13.10;;;11.93;;
37877;SDS011;23715;53.652;8.516;2023-07-16T17:42:08;13.95;;;12.88;;
37877;SDS011;23715;53.652;8.516;2023-07-16T17:47:09;12.50;;;11.30;;
37877;SDS011;23715;53.652;8.516;2023-07-16T17:52:13;12.13;;;10.93;;
37877;SDS011;23715;53.652;8.516;2023-07-16T17:57:14;11.85;;;10.65;;
37877;SDS011;23715;53.652;8.516;2023-07-16T18:02:16;12.28;;;11.22;;
37877;SDS011;23715;53.652;8.516;2023-07-16T18:07:16;12.18;;;10.98;;
37877;SDS011;23715;53.652;8.516;2023-07-16T18:12:18;11.95;;;10.93;;
37877;SDS011;23715;53.652;8.516;2023-07-16T18:17:22;12.17;;;11.17;;
37877;SDS011;23715;53.652;8.516;2023-07-16T18:22:22;11.55;;;10.48;;
37877;SDS011;23715;53.652;8.516;2023-07-16T18:27:22;12.88;;;10.70;;
37877;SDS011;23715;53.652;8.516;2023-07-16T18:32:23;11.20;;;10.20;;
37877;SDS011;23715;53.652;8.516;2023-07-16T18:37:23;10.08;;;9.18;;
37877;SDS011;23715;53.652;8.516;2023-07-16T18:42:24;11.45;;;10.35;;
37877;SDS011;23715;53.652;8.516;2023-07-16T18:47:26;10.97;;;10.17;;
37877;SDS011;23715;53.652;8.516;2023-07-16T18:52:27;10.85;;;9.80;;
37877;SDS011;23715;53.652;8.516;2023-07-16T18:57:27;11.27;;;10.23;;
37877;SDS011;23715;53.652;8.516;2023-07-16T19:02:28;10.95;;;10.10;;
37877;SDS011;23715;53.652;8.516;2023-07-16T19:12:29;12.67;;;11.53;;
37877;SDS011;23715;53.652;8.516;2023-07-16T19:17:29;12.20;;;10.95;;
37877;SDS011;23715;53.652;8.516;2023-07-16T19:22:34;13.10;;;9.50;;
37877;SDS011;23715;53.652;8.516;2023-07-16T19:27:34;10.53;;;9.50;;
37877;SDS011;23715;53.652;8.516;2023-07-16T19:37:37;8.68;;;7.80;;
37877;SDS011;23715;53.652;8.516;2023-07-16T19:47:37;9.65;;;8.20;;
37877;SDS011;23715;53.652;8.516;2023-07-16T19:52:39;7.78;;;7.05;;
37877;SDS011;23715;53.652;8.516;2023-07-16T19:57:39;10.40;;;9.10;;
37877;SDS011;23715;53.652;8.516;2023-07-16T20:02:41;11.80;;;7.92;;
37877;SDS011;23715;53.652;8.516;2023-07-16T20:07:41;14.03;;;8.60;;
37877;SDS011;23715;53.652;8.516;2023-07-16T20:12:42;9.48;;;7.25;;
37877;SDS011;23715;53.652;8.516;2023-07-16T20:17:44;12.53;;;7.87;;
37877;SDS011;23715;53.652;8.516;2023-07-16T20:22:44;10.10;;;8.48;;
37877;SDS011;23715;53.652;8.516;2023-07-16T20:27:46;11.35;;;8.43;;
37877;SDS011;23715;53.652;8.516;2023-07-16T20:32:48;11.78;;;7.87;;
37877;SDS011;23715;53.652;8.516;2023-07-16T20:37:48;12.33;;;8.23;;
37877;SDS011;23715;53.652;8.516;2023-07-16T20:47:49;11.38;;;8.33;;
37877;SDS011;23715;53.652;8.516;2023-07-16T20:52:51;11.70;;;8.10;;
37877;SDS011;23715;53.652;8.516;2023-07-16T20:57:53;11.63;;;8.00;;
37877;SDS011;23715;53.652;8.516;2023-07-16T21:02:55;9.53;;;8.63;;
37877;SDS011;23715;53.652;8.516;2023-07-16T21:07:56;10.38;;;7.80;;
37877;SDS011;23715;53.652;8.516;2023-07-16T21:12:57;9.75;;;8.70;;
37877;SDS011;23715;53.652;8.516;2023-07-16T21:18:00;12.58;;;9.63;;
37877;SDS011;23715;53.652;8.516;2023-07-16T21:23:04;12.33;;;10.95;;
37877;SDS011;23715;53.652;8.516;2023-07-16T21:28:06;11.28;;;10.35;;
37877;SDS011;23715;53.652;8.516;2023-07-16T21:33:07;13.62;;;9.78;;
37877;SDS011;23715;53.652;8.516;2023-07-16T21:38:08;10.93;;;9.00;;
37877;SDS011;23715;53.652;8.516;2023-07-16T21:48:08;10.48;;;9.20;;
37877;SDS011;23715;53.652;8.516;2023-07-16T21:53:14;9.05;;;8.15;;
37877;SDS011;23715;53.652;8.516;2023-07-16T21:58:15;10.43;;;8.05;;
37877;SDS011;23715;53.652;8.516;2023-07-16T22:03:15;9.75;;;7.03;;
37877;SDS011;23715;53.652;8.516;2023-07-16T22:08:17;13.05;;;7.53;;
37877;SDS011;23715;53.652;8.516;2023-07-16T22:13:17;7.70;;;6.40;;
37877;SDS011;23715;53.652;8.516;2023-07-16T22:23:17;13.98;;;7.17;;
37877;SDS011;23715;53.652;8.516;2023-07-16T22:28:17;10.95;;;6.00;;
37877;SDS011;23715;53.652;8.516;2023-07-16T22:33:17;16.48;;;6.55;;
37877;SDS011;23715;53.652;8.516;2023-07-16T22:43:17;10.15;;;6.70;;
37877;SDS011;23715;53.652;8.516;2023-07-16T22:48:19;8.73;;;6.75;;
37877;SDS011;23715;53.652;8.516;2023-07-16T22:53:19;15.73;;;6.97;;
37877;SDS011;23715;53.652;8.516;2023-07-16T22:58:20;13.05;;;7.40;;
37877;SDS011;23715;53.652;8.516;2023-07-16T23:03:26;10.50;;;7.00;;
37877;SDS011;23715;53.652;8.516;2023-07-16T23:08:22;14.18;;;7.65;;
37877;SDS011;23715;53.652;8.516;2023-07-16T23:13:22;10.10;;;6.83;;
37877;SDS011;23715;53.652;8.516;2023-07-16T23:18:23;10.50;;;6.35;;
37877;SDS011;23715;53.652;8.516;2023-07-16T23:23:24;9.55;;;6.33;;
37877;SDS011;23715;53.652;8.516;2023-07-16T23:28:24;15.90;;;7.62;;
37877;SDS011;23715;53.652;8.516;2023-07-16T23:33:25;11.05;;;7.50;;
37877;SDS011;23715;53.652;8.516;2023-07-16T23:38:26;11.25;;;8.03;;
37877;SDS011;23715;53.652;8.516;2023-07-16T23:43:26;15.20;;;9.03;;
37877;SDS011;23715;53.652;8.516;2023-07-16T23:48:26;13.32;;;9.03;;
37877;SDS011;23715;53.652;8.516;2023-07-16T23:53:27;12.47;;;9.58;;
37877;SDS011;23715;53.652;8.516;2023-07-16T23:58:27;14.78;;;9.90;;
